Flight Track Log - Related Links

Times and Time Zones

All times are in EDT time to prevent confusion due to time zone crossing. See the C-GKPY flight status page for this flight to view local times or setup timezone preferences in your user account.


Time Position Orientation Groundspeed Altitude Reporting Facility
EDT Latitude Longitude Course Direction KTS MPH feet Rate Location/Type
Sat 10:51:01 AM 50.0500 -97.0167 232° Southwest 90 104 1,100  Level Winnipeg Center
Sat 10:52:01 AM 50.0833 -97.0167 360° North 90 104 2,200 1,000 Climbing Winnipeg Center
Sat 10:53:01 AM 50.1000 -97.0167 360° North 100 115 3,100 1,000 Climbing Winnipeg Center
Sat 10:54:01 AM 50.1167 -97.0000 33° Northeast 100 115 4,200 1,000 Climbing Winnipeg Center
Sat 10:55:01 AM 50.0833 -96.9667 147° Southeast 120 138 5,100 450 Climbing Winnipeg Center
Sat 10:56:00 AM 50.0564 -97.0325 232° Southwest  Level Estimated
Sat 10:56:01 AM 50.0500 -96.9333 147° Southeast 140 161 5,100  Level Winnipeg Center
Sat 10:57:01 AM 50.0167 -96.9167 162° South 140 161 5,100  Level Winnipeg Center
Sat 10:58:01 AM 49.9833 -96.8833 147° Southeast 140 161 5,100  Level Winnipeg Center
Sat 10:59:01 AM 49.9333 -96.8667 168° South 140 161 5,100  Level Winnipeg Center
Sat 11:00:01 AM 49.9000 -96.8333 147° Southeast 140 161 5,100 50 Level Winnipeg Center
Sat 11:01:01 AM 49.8667 -96.8167 162° South 140 161 5,200  Climbing Winnipeg Center
Sat 11:02:01 AM 49.8667 -96.7500 90° East 130 150 5,100 -50 Descending Winnipeg Center
Sat 11:03:01 AM 49.8500 -96.7000 117° Southeast 130 150 5,100  Level Winnipeg Center
Sat 11:04:01 AM 49.8167 -96.7333 213° Southwest 150 173 5,100  Level Winnipeg Center
Sat 11:05:01 AM 49.8167 -96.7833 270° West 140 161 5,100 -150 Level Winnipeg Center
Sat 11:06:01 AM 49.8167 -96.8667 270° West 150 173 4,800 -350 Descending Winnipeg Center
Sat 11:07:01 AM 49.8167 -96.9167 270° West 150 173 4,400 -400 Descending Winnipeg Center
Sat 11:08:01 AM 49.8167 -97.0000 270° West 150 173 4,000 -200 Descending Winnipeg Center
Sat 11:09:01 AM 49.8333 -97.0500 297° West 140 161 4,000 50 Level Winnipeg Center
Sat 11:10:01 AM 49.8167 -97.1000 243° Southwest 140 161 4,100 50 Climbing Winnipeg Center
Sat 11:11:01 AM 49.8333 -97.1500 297° West 130 150 4,100 -50 Level Winnipeg Center
Sat 11:12:01 AM 49.8500 -97.1167 52° Northeast 120 138 4,000  Descending Winnipeg Center
Sat 11:13:01 AM 49.8167 -97.1000 162° South 120 138 4,100 50 Climbing Winnipeg Center
Sat 11:14:01 AM 49.8000 -97.0667 128° Southeast 120 138 4,100  Level Winnipeg Center
Sat 11:15:01 AM 49.8000 -97.1167 270° West 120 138 4,100  Level Winnipeg Center
Sat 11:16:01 AM 49.8333 -97.1500 327° Northwest 120 138 4,100  Level Winnipeg Center
Sat 11:17:01 AM 49.8500 -97.1167 52° Northeast 120 138 4,100 -50 Level Winnipeg Center
Sat 11:18:01 AM 49.8167 -97.1000 162° South 120 138 4,000 -300 Descending Winnipeg Center
Sat 11:20:01 AM 49.8167 -97.1167 270° West 130 150 3,200 -333 Descending Winnipeg Center
Sat 11:21:01 AM 49.8333 -97.1500 308° West 120 138 3,000 -50 Descending Winnipeg Center
Sat 11:22:01 AM 49.8333 -97.1167 90° East 110 127 3,100 50 Climbing Winnipeg Center
Sat 11:23:01 AM 49.8167 -97.1000 147° Southeast 120 138 3,100  Level Winnipeg Center
Sat 11:24:01 AM 49.7833 -97.0500 136° Southeast 120 138 3,100 -50 Level Winnipeg Center
Sat 11:25:01 AM 49.7667 -97.0500 180° South 120 138 3,000 -250 Descending Winnipeg Center
Sat 11:26:01 AM 49.7833 -97.1000 297° West 120 138 2,600 -400 Descending Winnipeg Center
Sat 11:27:01 AM 49.8167 -97.1167 342° North 120 138 2,200 -350 Descending Winnipeg Center
Sat 11:28:01 AM 49.8333 -97.1500 308° West 110 127 1,900 -300 Descending Winnipeg Center
Sat 11:29:01 AM 49.8500 -97.1667 327° Northwest 100 115 1,600 -200 Descending Winnipeg Center
Sat 11:30:01 AM 49.8667 -97.2000 308° West 100 115 1,500 200 Descending Winnipeg Center
Sat 11:31:01 AM 49.9000 -97.2333 327° Northwest 110 127 2,000 750 Climbing Winnipeg Center
Sat 11:32:01 AM 49.9000 -97.2833 270° West 120 138 3,000 550 Climbing Winnipeg Center
Sat 11:33:01 AM 49.8667 -97.3000 198° South 130 150 3,100 50 Climbing Winnipeg Center
Sat 11:34:01 AM 49.8333 -97.3333 213° Southwest 120 138 3,100  Level Winnipeg Center
Sat 11:35:01 AM 49.8000 -97.3333 180° South 120 138 3,100 50 Level Winnipeg Center
Sat 11:36:01 AM 49.7667 -97.3500 198° South 120 138 3,200  Climbing Winnipeg Center
Sat 11:37:01 AM 49.7333 -97.3500 180° South 110 127 3,100 -50 Descending Winnipeg Center
Sat 11:38:01 AM 49.7333 -97.3000 90° East 100 115 3,100 -50 Level Winnipeg Center
Sat 11:39:01 AM 49.7500 -97.2833 33° Northeast 100 115 3,000 -150 Descending Winnipeg Center
Sat 11:40:01 AM 49.7833 -97.2500 33° Northeast 100 115 2,800 -350 Descending Winnipeg Center
Sat 11:41:01 AM 49.8000 -97.2500 360° North 110 127 2,300 -550 Descending Winnipeg Center
Sat 11:42:01 AM 49.8333 -97.2500 360° North 110 127 1,700 -550 Descending Winnipeg Center
Sat 11:43:01 AM 49.8667 -97.2333 18° North 100 115 1,200 -450 Descending Winnipeg Center
Sat 11:44:01 AM 49.8833 -97.2333 360° North 90 104 800 250 Descending Winnipeg Center
Sat 11:45:01 AM 49.9167 -97.2333 360° North 110 127 1,700 550 Climbing Winnipeg Center
Sat 11:46:01 AM 49.9333 -97.1667 69° East 130 150 1,900 50 Climbing Winnipeg Center
Sat 11:47:01 AM 49.9333 -97.1167 90° East 130 150 1,800 -50 Descending Winnipeg Center
Sat 11:48:01 AM 49.9500 -97.0667 63° Northeast 120 138 1,800 50 Level Winnipeg Center
Sat 11:49:01 AM 49.9500 -97.1000 270° West 120 138 1,900  Climbing Winnipeg Center
Sat 11:50:01 AM 49.9500 -97.0667 90° East 130 150 1,800 -150 Descending Winnipeg Center
Sat 11:51:01 AM 49.9833 -97.0500 18° North 110 127 1,600 -250 Descending Winnipeg Center
Sat 11:52:01 AM 50.0167 -97.0500 360° North 90 104 1,300 -350 Descending Winnipeg Center
Sat 11:53:01 AM 50.0333 -97.0167 52° Northeast 90 104 900 -400 Descending Winnipeg Center

Login

Don't have an account? Register now (free) for customized features, flight alerts, and more!